createdAt,value
2022-12-25T00:01:31.929Z,100947.81
2022-12-25T00:06:33.429Z,100956.50
2022-12-25T00:11:35.022Z,100962.03
2022-12-25T00:16:36.640Z,100958.75
2022-12-25T00:21:38.355Z,100952.22
2022-12-25T00:26:39.916Z,100962.16
2022-12-25T00:31:41.424Z,100946.81
2022-12-25T00:36:42.995Z,100943.03
2022-12-25T00:41:44.531Z,100948.38
2022-12-25T00:46:46.317Z,100941.69
2022-12-25T00:51:49.445Z,100946.59
2022-12-25T00:56:51.101Z,100954.63
2022-12-25T01:01:52.779Z,100961.31
2022-12-25T01:06:54.511Z,100951.50
2022-12-25T01:11:56.039Z,100950.69
2022-12-25T01:16:57.577Z,100949.84
2022-12-25T01:21:59.348Z,100959.22
2022-12-25T01:27:00.922Z,100963.75
2022-12-25T01:32:02.550Z,100962.59
2022-12-25T01:37:04.702Z,100962.38
2022-12-25T01:42:06.404Z,100958.56
2022-12-25T01:47:07.923Z,100955.28
2022-12-25T01:52:20.239Z,100956.44
2022-12-25T01:57:30.559Z,100963.97
2022-12-25T02:02:32.804Z,100964.50
2022-12-25T02:07:37.169Z,100966.28
2022-12-25T02:12:39.445Z,100961.34
2022-12-25T02:17:53.174Z,100968.22
2022-12-25T02:23:32.183Z,100964.28
2022-12-25T02:28:49.204Z,100965.88
2022-12-25T02:34:15.425Z,100974.41
2022-12-25T02:39:42.032Z,100969.81
2022-12-25T02:44:46.899Z,100962.97
2022-12-25T02:49:50.230Z,100966.91
2022-12-25T02:54:57.282Z,100973.75
2022-12-25T03:00:01.961Z,100971.78
2022-12-25T03:05:09.271Z,100966.22
2022-12-25T03:10:13.367Z,100967.19
2022-12-25T03:15:17.718Z,100971.72
2022-12-25T03:20:19.482Z,100955.06
2022-12-25T03:25:21.383Z,100949.81
2022-12-25T03:30:29.705Z,100949.16
2022-12-25T03:35:51.476Z,100946.63
2022-12-25T03:41:20.867Z,100924.38
2022-12-25T03:46:27.307Z,100924.34
2022-12-25T03:51:36.234Z,100912.06
2022-12-25T03:56:39.218Z,100917.38
2022-12-25T04:01:40.839Z,100899.63
2022-12-25T04:06:42.750Z,100885.41
2022-12-25T04:11:44.891Z,100895.88
2022-12-25T04:16:46.530Z,100906.97
2022-12-25T04:21:48.099Z,100912.94
2022-12-25T04:26:49.656Z,100917.91
2022-12-25T04:31:51.161Z,100911.34
2022-12-25T04:36:52.655Z,100915.13
2022-12-25T04:41:54.167Z,100924.63
2022-12-25T04:46:55.848Z,100938.97
2022-12-25T04:51:57.574Z,100932.09
2022-12-25T04:56:59.086Z,100915.88
2022-12-25T05:02:00.708Z,100894.97
2022-12-25T05:07:02.551Z,100903.00
2022-12-25T05:12:04.354Z,100902.38
2022-12-25T05:17:06.026Z,100884.88
2022-12-25T05:22:07.673Z,100879.59
2022-12-25T05:27:09.171Z,100870.00
2022-12-25T05:32:10.681Z,100874.44
2022-12-25T05:37:12.373Z,100865.69
2022-12-25T05:42:13.908Z,100863.53
2022-12-25T05:47:15.457Z,100864.00
2022-12-25T05:52:17.007Z,100849.97
2022-12-25T05:57:18.538Z,100852.09
2022-12-25T06:02:20.210Z,100854.06
2022-12-25T06:07:21.882Z,100833.56
2022-12-25T06:12:23.466Z,100840.97
2022-12-25T06:17:26.635Z,100837.97
2022-12-25T06:22:33.375Z,100849.72
2022-12-25T06:27:34.792Z,100823.97
2022-12-25T06:32:36.631Z,100836.84
2022-12-25T06:37:38.234Z,100825.44
2022-12-25T06:42:39.799Z,100801.16
2022-12-25T06:47:41.336Z,100787.84
2022-12-25T06:52:42.852Z,100787.94
2022-12-25T06:57:44.360Z,100781.97
2022-12-25T07:02:49.139Z,100798.22
2022-12-25T07:07:50.863Z,100771.03
2022-12-25T07:12:52.347Z,100742.81
2022-12-25T07:17:53.901Z,100744.09
2022-12-25T07:22:55.784Z,100737.41
2022-12-25T07:27:57.368Z,100732.97
2022-12-25T07:32:59.004Z,100739.94
2022-12-25T07:38:00.567Z,100748.16
2022-12-25T07:43:02.064Z,100742.22
2022-12-25T07:48:05.830Z,100743.66
2022-12-25T07:53:09.108Z,100765.53
2022-12-25T07:58:10.606Z,100760.56
2022-12-25T08:03:12.372Z,100739.97
2022-12-25T08:08:14.075Z,100729.91
2022-12-25T08:13:15.607Z,100731.19
2022-12-25T08:18:17.139Z,100718.53
2022-12-25T08:23:18.652Z,100722.50
2022-12-25T08:28:20.145Z,100726.94
2022-12-25T08:33:21.806Z,100730.00
2022-12-25T08:38:23.383Z,100692.78
2022-12-25T08:43:24.943Z,100694.38
2022-12-25T08:48:26.624Z,100708.50
2022-12-25T08:53:28.210Z,100705.88
2022-12-25T08:58:30.407Z,100715.44
2022-12-25T09:03:32.456Z,100703.75
2022-12-25T09:08:35.186Z,100708.06
2022-12-25T09:13:37.107Z,100705.53
2022-12-25T09:18:39.112Z,100676.44
2022-12-25T09:23:41.257Z,100669.47
2022-12-25T09:28:50.146Z,100688.38
2022-12-25T09:33:56.822Z,100704.91
2022-12-25T09:38:58.448Z,100695.44
2022-12-25T09:43:59.919Z,100707.38
2022-12-25T09:49:07.412Z,100720.47
2022-12-25T09:54:27.895Z,100736.59
2022-12-25T09:59:29.563Z,100736.41
2022-12-25T10:05:00.599Z,100741.00
2022-12-25T10:10:22.339Z,100744.91
2022-12-25T10:15:36.695Z,100742.72
2022-12-25T10:20:53.256Z,100734.50
2022-12-25T10:25:54.812Z,100719.22
2022-12-25T10:31:01.110Z,100717.84
2022-12-25T10:36:02.979Z,100705.88
2022-12-25T10:41:11.502Z,100675.22
2022-12-25T10:46:15.410Z,100672.09
2022-12-25T10:51:35.642Z,100668.94
2022-12-25T10:56:37.204Z,100658.75
2022-12-25T11:01:38.926Z,100677.72
2022-12-25T11:06:40.510Z,100675.91
2022-12-25T11:11:42.284Z,100643.56
2022-12-25T11:16:43.902Z,100614.28
2022-12-25T11:21:51.943Z,100580.09
2022-12-25T11:26:59.123Z,100562.84
2022-12-25T11:32:02.871Z,100567.19
2022-12-25T11:37:12.932Z,100549.06
2022-12-25T11:42:23.550Z,100539.25
2022-12-25T11:47:46.389Z,100521.53
2022-12-25T11:52:48.504Z,100508.09
2022-12-25T11:57:58.428Z,100507.19
2022-12-25T12:03:13.190Z,100487.81
2022-12-25T12:08:14.975Z,100485.00
2022-12-25T12:13:34.037Z,100482.03
2022-12-25T12:18:36.202Z,100479.22
2022-12-25T12:24:03.438Z,100476.16
2022-12-25T12:29:08.375Z,100468.28
2022-12-25T12:34:22.027Z,100476.41
2022-12-25T12:39:28.229Z,100481.66
2022-12-25T12:44:33.259Z,100473.41
2022-12-25T12:49:34.927Z,100486.81
2022-12-25T12:54:55.159Z,100475.50
2022-12-25T13:00:02.026Z,100474.06
2022-12-25T13:05:40.453Z,100458.53
2022-12-25T13:10:48.610Z,100451.91
2022-12-25T13:15:51.728Z,100449.44
2022-12-25T13:20:56.449Z,100446.81
2022-12-25T13:26:30.540Z,100421.78
2022-12-25T13:31:32.194Z,100417.94
2022-12-25T13:36:38.713Z,100434.91
2022-12-25T13:41:50.109Z,100420.56
2022-12-25T13:46:51.970Z,100421.78
2022-12-25T13:52:10.738Z,100424.81
2022-12-25T13:57:12.617Z,100420.59
2022-12-25T14:02:22.650Z,100403.81
2022-12-25T14:07:24.530Z,100418.34
2022-12-25T14:12:28.971Z,100440.41
2022-12-25T14:17:30.583Z,100458.22
2022-12-25T14:22:32.244Z,100447.91
2022-12-25T14:27:34.029Z,100436.78
2022-12-25T14:32:42.932Z,100442.25
2022-12-25T14:37:45.122Z,100448.97
2022-12-25T14:42:58.715Z,100428.72
2022-12-25T14:48:02.506Z,100428.94
2022-12-25T14:53:04.597Z,100441.47
2022-12-25T14:58:06.844Z,100419.63
2022-12-25T15:03:23.247Z,100415.78
2022-12-25T15:08:25.392Z,100423.69
2022-12-25T15:13:27.702Z,100415.59
2022-12-25T15:18:34.160Z,100413.16
2022-12-25T15:23:35.694Z,100407.88
2022-12-25T15:28:37.381Z,100410.94
2022-12-25T15:33:43.960Z,100407.50
2022-12-25T15:38:46.233Z,100394.75
2022-12-25T15:43:47.765Z,100391.13
2022-12-25T15:48:49.321Z,100394.53
2022-12-25T15:53:50.831Z,100384.03
2022-12-25T15:58:52.448Z,100388.28
2022-12-25T16:03:54.073Z,100396.59
2022-12-25T16:08:55.717Z,100383.03
2022-12-25T16:13:57.438Z,100377.97
2022-12-25T16:18:59.351Z,100384.03
2022-12-25T16:24:01.000Z,100379.78
2022-12-25T16:29:07.014Z,100378.16
2022-12-25T16:34:09.985Z,100379.91
2022-12-25T16:39:11.937Z,100383.28
2022-12-25T16:44:13.441Z,100391.00
2022-12-25T16:49:15.155Z,100396.31
2022-12-25T16:54:16.688Z,100394.25
2022-12-25T16:59:18.270Z,100400.75
2022-12-25T17:04:19.952Z,100392.88
2022-12-25T17:09:21.573Z,100406.63
2022-12-25T17:14:23.090Z,100396.09
2022-12-25T17:19:25.887Z,100400.50
2022-12-25T17:24:27.983Z,100396.47
2022-12-25T17:29:29.693Z,100394.47
2022-12-25T17:34:31.491Z,100387.19
2022-12-25T17:39:33.203Z,100393.06
2022-12-25T17:44:34.715Z,100392.19
2022-12-25T17:49:36.366Z,100388.56
2022-12-25T17:54:37.879Z,100377.03
2022-12-25T17:59:39.391Z,100382.91
2022-12-25T18:04:40.932Z,100398.66
2022-12-25T18:09:42.450Z,100389.34
2022-12-25T18:14:44.037Z,100381.66
2022-12-25T18:19:45.732Z,100360.63
2022-12-25T18:24:47.319Z,100355.63
2022-12-25T18:29:49.048Z,100357.97
2022-12-25T18:34:53.987Z,100356.00
2022-12-25T18:39:55.514Z,100343.56
2022-12-25T18:44:57.329Z,100354.44
2022-12-25T18:49:59.418Z,100360.38
2022-12-25T18:55:00.982Z,100353.78
2022-12-25T19:00:03.732Z,100348.13
2022-12-25T19:05:05.452Z,100341.75
2022-12-25T19:10:07.797Z,100357.19
2022-12-25T19:15:09.765Z,100362.00
2022-12-25T19:20:11.846Z,100362.47
2022-12-25T19:25:13.448Z,100377.22
2022-12-25T19:30:15.058Z,100388.53
2022-12-25T19:35:16.764Z,100400.91
2022-12-25T19:40:18.397Z,100402.47
2022-12-25T19:45:20.021Z,100411.28
2022-12-25T19:50:21.774Z,100405.31
2022-12-25T19:55:23.346Z,100403.31
2022-12-25T20:00:25.181Z,100403.50
2022-12-25T20:05:30.008Z,100399.34
2022-12-25T20:10:31.554Z,100398.31
2022-12-25T20:15:33.052Z,100391.28
2022-12-25T20:20:34.813Z,100389.88
2022-12-25T20:25:41.599Z,100397.75
2022-12-25T20:30:43.267Z,100401.38
2022-12-25T20:35:46.296Z,100397.94
2022-12-25T20:41:25.092Z,100370.59
2022-12-25T20:46:10.315Z,100387.19
2022-12-25T20:51:17.494Z,100411.09
2022-12-25T20:56:21.646Z,100398.94
2022-12-25T21:01:24.005Z,100391.28
2022-12-25T21:06:26.098Z,100389.25
2022-12-25T21:11:27.658Z,100393.69
2022-12-25T21:16:29.252Z,100421.94
2022-12-25T21:21:32.226Z,100420.78
2022-12-25T21:26:33.801Z,100412.66
2022-12-25T21:31:35.883Z,100424.13
2022-12-25T21:36:37.436Z,100432.31
2022-12-25T21:41:39.112Z,100428.66
2022-12-25T21:46:40.769Z,100433.78
2022-12-25T21:51:42.369Z,100426.47
2022-12-25T21:56:45.778Z,100423.31
2022-12-25T22:01:48.922Z,100438.84
2022-12-25T22:06:51.185Z,100443.53
2022-12-25T22:11:52.822Z,100437.88
2022-12-25T22:16:54.451Z,100440.94
2022-12-25T22:21:56.121Z,100438.72
2022-12-25T22:26:57.815Z,100439.88
2022-12-25T22:31:59.514Z,100453.41
2022-12-25T22:37:02.117Z,100456.28
2022-12-25T22:42:03.974Z,100463.59
2022-12-25T22:47:05.589Z,100459.28
2022-12-25T22:52:07.356Z,100451.25
2022-12-25T22:57:09.091Z,100469.50
2022-12-25T23:02:10.845Z,100468.75
2022-12-25T23:07:12.572Z,100466.25
2022-12-25T23:12:14.427Z,100467.91
2022-12-25T23:17:17.467Z,100467.34
2022-12-25T23:22:19.155Z,100484.19
2022-12-25T23:27:21.006Z,100476.50
2022-12-25T23:32:25.444Z,100475.44
2022-12-25T23:37:27.275Z,100482.88
2022-12-25T23:42:32.708Z,100469.84
2022-12-25T23:47:37.292Z,100473.94
2022-12-25T23:52:38.932Z,100478.19
2022-12-25T23:57:40.697Z,100475.72
